createdAt,value
2019-01-24T00:01:50.742Z,-0.93
2019-01-24T00:04:21.557Z,-0.85
2019-01-24T00:06:52.252Z,-0.86
2019-01-24T00:09:22.758Z,-0.86
2019-01-24T00:11:53.213Z,-0.87
2019-01-24T00:14:23.696Z,-0.83
2019-01-24T00:16:54.152Z,-0.84
2019-01-24T00:19:24.912Z,-0.87
2019-01-24T00:21:55.708Z,-0.89
2019-01-24T00:24:26.155Z,-0.88
2019-01-24T00:26:56.617Z,-0.91
2019-01-24T00:29:27.110Z,-0.82
2019-01-24T00:31:57.471Z,-0.87
2019-01-24T00:34:27.969Z,-0.89
2019-01-24T00:36:58.320Z,-0.92
2019-01-24T00:39:28.854Z,-0.87
2019-01-24T00:41:59.258Z,-0.90
2019-01-24T00:44:29.974Z,-0.93
2019-01-24T00:47:00.664Z,-0.89
2019-01-24T00:49:31.123Z,-0.95
2019-01-24T00:52:01.838Z,-0.97
2019-01-24T00:54:32.315Z,-0.95
2019-01-24T00:57:03.028Z,-1.03
2019-01-24T00:59:33.730Z,-0.93
2019-01-24T01:02:04.185Z,-1.00
2019-01-24T01:04:34.961Z,-1.02
2019-01-24T01:07:05.741Z,-1.03
2019-01-24T01:09:36.203Z,-1.04
2019-01-24T01:12:07.747Z,-1.07
2019-01-24T01:14:38.270Z,-1.03
2019-01-24T01:17:08.703Z,-1.03
2019-01-24T01:19:39.471Z,-1.00
2019-01-24T01:22:10.186Z,-1.03
2019-01-24T01:24:40.635Z,-1.10
2019-01-24T01:27:11.114Z,-1.07
2019-01-24T01:29:41.830Z,-1.04
2019-01-24T01:32:12.822Z,-1.06
2019-01-24T01:34:43.263Z,-1.10
2019-01-24T01:37:14.018Z,-1.12
2019-01-24T01:39:44.692Z,-1.08
2019-01-24T01:42:15.174Z,-1.02
2019-01-24T01:44:45.630Z,-1.09
2019-01-24T01:47:16.138Z,-1.09
2019-01-24T01:49:46.612Z,-1.09
2019-01-24T01:52:17.318Z,-1.06
2019-01-24T01:54:47.751Z,-1.11
2019-01-24T01:57:18.753Z,-1.11
2019-01-24T01:59:48.937Z,-1.10
2019-01-24T02:02:19.381Z,-1.13
2019-01-24T02:04:50.143Z,-1.07
2019-01-24T02:07:20.866Z,-1.10
2019-01-24T02:09:51.485Z,-1.11
2019-01-24T02:12:22.230Z,-1.12
2019-01-24T02:14:52.723Z,-1.15
2019-01-24T02:17:23.170Z,-1.16
2019-01-24T02:19:53.907Z,-1.14
2019-01-24T02:22:24.280Z,-1.13
2019-01-24T02:24:54.760Z,-1.24
2019-01-24T02:27:25.439Z,-1.19
2019-01-24T02:29:55.869Z,-1.19
2019-01-24T02:32:26.620Z,-1.28
2019-01-24T02:34:57.066Z,-1.24
2019-01-24T02:37:27.703Z,-1.20
2019-01-24T02:39:58.419Z,-1.24
2019-01-24T02:42:28.876Z,-1.23
2019-01-24T02:44:59.335Z,-1.24
2019-01-24T02:47:29.741Z,-1.22
2019-01-24T02:50:00.521Z,-1.20
2019-01-24T02:52:31.260Z,-1.19
2019-01-24T02:55:02.016Z,-1.19
2019-01-24T02:57:32.746Z,-1.27
2019-01-24T03:00:03.199Z,-1.31
2019-01-24T03:02:33.961Z,-1.40
2019-01-24T03:05:05.460Z,-1.34
2019-01-24T03:07:35.899Z,-1.34
2019-01-24T03:10:08.966Z,-1.32
2019-01-24T03:12:39.691Z,-1.28
2019-01-24T03:15:13.141Z,-1.22
2019-01-24T03:17:43.551Z,-1.26
2019-01-24T03:20:14.240Z,-1.23
2019-01-24T03:22:45.478Z,-1.27
2019-01-24T03:25:16.447Z,-1.20
2019-01-24T03:27:46.905Z,-1.21
2019-01-24T03:30:20.447Z,-1.25
2019-01-24T03:32:51.169Z,-1.38
2019-01-24T03:35:25.254Z,-1.31
2019-01-24T03:37:55.688Z,-1.31
2019-01-24T03:40:26.154Z,-1.36
2019-01-24T03:42:56.901Z,-1.34
2019-01-24T03:45:27.432Z,-1.30
2019-01-24T03:47:57.852Z,-1.29
2019-01-24T03:50:28.612Z,-1.31
2019-01-24T03:52:59.048Z,-1.31
2019-01-24T03:55:29.521Z,-1.27
2019-01-24T03:58:00.260Z,-1.28
2019-01-24T04:00:30.729Z,-1.28
2019-01-24T04:03:01.212Z,-1.29
2019-01-24T04:05:31.671Z,-1.35
2019-01-24T04:08:02.142Z,-1.33
2019-01-24T04:10:32.651Z,-1.32
2019-01-24T04:13:03.474Z,-1.29
2019-01-24T04:15:34.202Z,-1.33
2019-01-24T04:18:04.806Z,-1.31
2019-01-24T04:20:35.297Z,-1.37
2019-01-24T04:23:06.003Z,-1.34
2019-01-24T04:25:36.429Z,-1.32
2019-01-24T04:28:07.128Z,-1.32
2019-01-24T04:30:37.631Z,-1.32
2019-01-24T04:33:08.105Z,-1.32
2019-01-24T04:35:38.579Z,-1.27
2019-01-24T04:38:09.020Z,-1.28
2019-01-24T04:40:39.488Z,-1.28
2019-01-24T04:43:09.927Z,-1.28
2019-01-24T04:45:40.647Z,-1.25
2019-01-24T04:48:11.145Z,-1.29
2019-01-24T04:50:41.647Z,-1.32
2019-01-24T04:53:12.074Z,-1.32
2019-01-24T04:55:42.562Z,-1.35
2019-01-24T04:58:12.984Z,-1.38
2019-01-24T05:00:43.461Z,-1.39
2019-01-24T05:03:14.158Z,-1.36
2019-01-24T05:05:44.628Z,-1.33
2019-01-24T05:08:15.083Z,-1.35
2019-01-24T05:10:45.837Z,-1.37
2019-01-24T05:13:16.183Z,-1.41
2019-01-24T05:15:46.676Z,-1.55
2019-01-24T05:18:17.396Z,-1.49
2019-01-24T05:20:47.833Z,-1.42
2019-01-24T05:23:18.287Z,-1.47
2019-01-24T05:25:48.965Z,-1.48
2019-01-24T05:28:19.688Z,-1.56
2019-01-24T05:30:50.414Z,-1.54
2019-01-24T05:33:20.780Z,-1.39
2019-01-24T05:35:51.603Z,-1.42
2019-01-24T05:38:22.060Z,-1.38
2019-01-24T05:40:53.035Z,-1.43
2019-01-24T05:43:23.874Z,-1.47
2019-01-24T05:45:54.354Z,-1.42
2019-01-24T05:48:25.063Z,-1.43
2019-01-24T05:50:56.643Z,-1.50
2019-01-24T05:53:27.145Z,-1.53
2019-01-24T05:55:57.605Z,-1.48
2019-01-24T05:58:28.150Z,-1.54
2019-01-24T06:00:58.807Z,-1.53
2019-01-24T06:03:29.466Z,-1.53
2019-01-24T06:06:00.542Z,-1.49
2019-01-24T06:08:30.997Z,-1.44
2019-01-24T06:11:01.690Z,-1.49
2019-01-24T06:13:32.179Z,-1.47
2019-01-24T06:16:03.100Z,-1.40
2019-01-24T06:18:33.799Z,-1.36
2019-01-24T06:21:04.581Z,-1.45
2019-01-24T06:23:35.029Z,-1.51
2019-01-24T06:26:05.491Z,-1.49
2019-01-24T06:28:35.984Z,-1.49
2019-01-24T06:31:06.444Z,-1.62
2019-01-24T06:33:36.879Z,-1.51
2019-01-24T06:36:07.642Z,-1.56
2019-01-24T06:38:39.503Z,-1.63
2019-01-24T06:41:10.263Z,-1.58
2019-01-24T06:43:40.735Z,-1.60
2019-01-24T06:46:11.181Z,-1.66
2019-01-24T06:48:41.924Z,-1.64
2019-01-24T06:51:12.668Z,-1.61
2019-01-24T06:53:43.387Z,-1.63
2019-01-24T06:56:13.788Z,-1.58
2019-01-24T06:58:44.190Z,-1.66
2019-01-24T07:01:14.615Z,-1.73
2019-01-24T07:03:45.371Z,-1.73
2019-01-24T07:06:15.877Z,-1.69
2019-01-24T07:08:46.220Z,-1.68
2019-01-24T07:11:16.675Z,-1.69
2019-01-24T07:13:47.343Z,-1.74
2019-01-24T07:16:17.887Z,-1.66
2019-01-24T07:18:48.373Z,-1.60
2019-01-24T07:21:19.121Z,-1.58
2019-01-24T07:23:49.559Z,-1.63
2019-01-24T07:26:21.389Z,-1.62
2019-01-24T07:28:52.108Z,-1.69
2019-01-24T07:31:22.788Z,-1.69
2019-01-24T07:33:53.235Z,-1.69
2019-01-24T07:36:23.736Z,-1.72
2019-01-24T07:38:54.223Z,-1.76
2019-01-24T07:41:24.669Z,-1.69
2019-01-24T07:43:55.128Z,-1.62
2019-01-24T07:46:25.592Z,-1.71
2019-01-24T07:48:55.933Z,-1.71
2019-01-24T07:51:26.396Z,-1.68
2019-01-24T07:53:56.840Z,-1.66
2019-01-24T07:56:27.286Z,-1.67
2019-01-24T07:58:58.016Z,-1.63
2019-01-24T08:01:28.372Z,-1.66
2019-01-24T08:03:58.731Z,-1.64
2019-01-24T08:06:29.193Z,-1.69
2019-01-24T08:08:59.667Z,-1.66
2019-01-24T08:11:30.099Z,-1.64
2019-01-24T08:14:00.810Z,-1.66
2019-01-24T08:16:31.426Z,-1.60
2019-01-24T08:19:02.015Z,-1.55
2019-01-24T08:21:32.449Z,-1.54
2019-01-24T08:24:03.124Z,-1.55
2019-01-24T08:26:33.571Z,-1.55
2019-01-24T08:29:04.362Z,-1.50
2019-01-24T08:31:34.779Z,-1.53
2019-01-24T08:34:05.765Z,-1.52
2019-01-24T08:36:36.498Z,-1.51
2019-01-24T08:39:10.621Z,-1.56
2019-01-24T08:41:40.991Z,-1.54
2019-01-24T08:44:11.693Z,-1.46
2019-01-24T08:46:42.113Z,-1.47
2019-01-24T08:49:12.567Z,-1.53
2019-01-24T08:51:43.053Z,-1.46
2019-01-24T08:54:13.485Z,-1.40
2019-01-24T08:56:44.002Z,-1.43
2019-01-24T08:59:14.445Z,-1.44
2019-01-24T09:01:44.975Z,-1.49
2019-01-24T09:04:15.415Z,-1.49
2019-01-24T09:06:45.872Z,-1.46
2019-01-24T09:09:16.317Z,-1.42
2019-01-24T09:11:47.034Z,-1.39
2019-01-24T09:14:17.733Z,-1.32
2019-01-24T09:16:48.174Z,-1.30
2019-01-24T09:19:18.897Z,-1.25
2019-01-24T09:21:49.512Z,-1.22
2019-01-24T09:24:19.918Z,-1.15
2019-01-24T09:26:50.400Z,-1.10
2019-01-24T09:29:20.809Z,-1.04
2019-01-24T09:31:51.295Z,-1.00
2019-01-24T09:34:22.008Z,-0.94
2019-01-24T09:36:52.778Z,-0.90
2019-01-24T09:39:23.426Z,-0.80
2019-01-24T09:41:53.929Z,-0.79
2019-01-24T09:44:24.627Z,-0.76
2019-01-24T09:46:55.075Z,-0.66
2019-01-24T09:49:25.456Z,-0.85
2019-01-24T09:51:56.163Z,-0.81
2019-01-24T09:54:26.902Z,-0.93
2019-01-24T09:56:57.389Z,-0.95
2019-01-24T09:59:28.054Z,-0.95
2019-01-24T10:01:58.729Z,-0.95
2019-01-24T10:04:29.412Z,-0.93
2019-01-24T10:07:00.109Z,-0.94
2019-01-24T10:09:30.583Z,-0.94
2019-01-24T10:12:01.253Z,-0.94
2019-01-24T10:14:31.691Z,-0.93
2019-01-24T10:17:02.139Z,-0.94
2019-01-24T10:19:32.598Z,-0.86
2019-01-24T10:22:03.124Z,-1.00
2019-01-24T10:24:33.547Z,-0.99
2019-01-24T10:27:04.368Z,-1.06
2019-01-24T10:29:35.049Z,-1.07
2019-01-24T10:32:05.674Z,-1.12
2019-01-24T10:34:36.198Z,-1.09
2019-01-24T10:37:06.649Z,-1.07
2019-01-24T10:39:37.065Z,-1.05
2019-01-24T10:42:07.511Z,-1.06
2019-01-24T10:44:37.932Z,-1.06
2019-01-24T10:47:08.297Z,-1.01
2019-01-24T10:49:39.270Z,-0.97
2019-01-24T10:52:09.709Z,-0.99
2019-01-24T10:54:40.160Z,-0.89
2019-01-24T10:57:10.871Z,-0.94
2019-01-24T10:59:41.336Z,-0.96
2019-01-24T11:02:12.285Z,-0.94
2019-01-24T11:04:42.771Z,-0.88
2019-01-24T11:07:13.534Z,-0.91
2019-01-24T11:09:44.089Z,-0.91
2019-01-24T11:12:14.555Z,-0.91
2019-01-24T11:14:45.291Z,-0.83
2019-01-24T11:17:15.726Z,-0.77
2019-01-24T11:19:46.482Z,-0.81
2019-01-24T11:22:16.970Z,-0.78
2019-01-24T11:24:47.450Z,-0.83
2019-01-24T11:27:18.160Z,-0.74
2019-01-24T11:29:48.594Z,-0.78
2019-01-24T11:32:19.031Z,-0.85
2019-01-24T11:34:49.766Z,-0.87
2019-01-24T11:37:20.422Z,-0.89
2019-01-24T11:39:50.961Z,-0.87
2019-01-24T11:42:21.837Z,-0.87
2019-01-24T11:44:52.512Z,-0.83
2019-01-24T11:47:23.070Z,-0.88
2019-01-24T11:49:53.797Z,-0.85
2019-01-24T11:52:24.731Z,-0.84
2019-01-24T11:54:55.342Z,-0.79
2019-01-24T11:57:26.137Z,-0.69
2019-01-24T11:59:57.181Z,-0.66
2019-01-24T12:02:27.888Z,-0.60
2019-01-24T12:04:58.584Z,-0.64
2019-01-24T12:07:29.283Z,-0.72
2019-01-24T12:09:59.954Z,-0.62
2019-01-24T12:12:30.801Z,-0.63
2019-01-24T12:15:01.826Z,-0.59
2019-01-24T12:17:32.531Z,-0.65
2019-01-24T12:20:03.431Z,-0.64
2019-01-24T12:22:34.244Z,-0.66
2019-01-24T12:25:04.854Z,-0.58
2019-01-24T12:27:35.477Z,-0.55
2019-01-24T12:30:11.072Z,-0.82
2019-01-24T12:32:42.127Z,-0.73
2019-01-24T12:35:13.278Z,-0.65
2019-01-24T12:37:44.149Z,-0.62
2019-01-24T12:40:14.983Z,-0.60
2019-01-24T12:42:45.831Z,-0.61
2019-01-24T12:45:20.364Z,-0.58
2019-01-24T12:47:51.487Z,-0.61
2019-01-24T12:50:22.158Z,-0.63
2019-01-24T12:52:53.296Z,-0.62
2019-01-24T12:55:24.296Z,-0.51
2019-01-24T12:57:54.943Z,-0.48
2019-01-24T13:00:31.654Z,-0.36
2019-01-24T13:03:02.470Z,-0.36
2019-01-24T13:05:33.043Z,-0.24
2019-01-24T13:08:03.895Z,-0.22
2019-01-24T13:10:34.967Z,-0.20
2019-01-24T13:13:06.019Z,-0.13
2019-01-24T13:15:37.347Z,-0.19
2019-01-24T13:18:07.962Z,-0.14
2019-01-24T13:20:38.646Z,-0.14
2019-01-24T13:23:09.341Z,-0.22
2019-01-24T13:25:40.137Z,-0.31
2019-01-24T13:28:10.689Z,-0.34
2019-01-24T13:30:41.497Z,-0.37
2019-01-24T13:33:12.382Z,-0.40
2019-01-24T13:35:43.010Z,-0.43
2019-01-24T13:38:13.628Z,-0.40
2019-01-24T13:40:44.233Z,-0.38
2019-01-24T13:43:14.980Z,-0.46
2019-01-24T13:45:45.710Z,-0.48
2019-01-24T13:48:16.194Z,-0.41
2019-01-24T13:50:46.586Z,-0.48
2019-01-24T13:53:17.082Z,-0.48
2019-01-24T13:55:47.533Z,-0.58
2019-01-24T13:58:18.261Z,-0.61
2019-01-24T14:00:49.601Z,-0.62
2019-01-24T14:04:09.216Z,-0.66
2019-01-24T14:06:39.972Z,-0.74
2019-01-24T14:09:11.541Z,-0.67
2019-01-24T14:11:42.281Z,-0.72
2019-01-24T14:14:13.033Z,-0.79
2019-01-24T14:16:43.481Z,-0.78
2019-01-24T14:19:14.158Z,-0.79
2019-01-24T14:21:44.859Z,-0.85
2019-01-24T14:24:15.662Z,-0.90
2019-01-24T14:26:46.090Z,-0.87
2019-01-24T14:29:16.548Z,-0.82
2019-01-24T14:31:46.974Z,-0.82
2019-01-24T14:34:17.348Z,-0.85
2019-01-24T14:36:48.158Z,-0.95
2019-01-24T14:39:18.579Z,-0.93
2019-01-24T14:41:49.043Z,-1.02
2019-01-24T14:44:19.424Z,-0.91
2019-01-24T14:46:50.418Z,-0.91
2019-01-24T14:49:20.837Z,-0.92
2019-01-24T14:51:51.291Z,-0.96
2019-01-24T14:54:21.914Z,-1.01
2019-01-24T14:56:52.355Z,-1.05
2019-01-24T14:59:23.020Z,-1.06
2019-01-24T15:01:53.702Z,-1.12
2019-01-24T15:04:24.134Z,-1.13
2019-01-24T15:06:54.853Z,-1.31
2019-01-24T15:09:25.313Z,-1.28
2019-01-24T15:11:55.739Z,-1.30
2019-01-24T15:14:26.502Z,-1.25
2019-01-24T15:16:56.958Z,-1.18
2019-01-24T15:19:27.422Z,-1.30
2019-01-24T15:21:58.175Z,-1.23
2019-01-24T15:24:28.674Z,-1.24
2019-01-24T15:26:59.137Z,-1.26
2019-01-24T15:29:29.843Z,-1.25
2019-01-24T15:32:00.290Z,-1.26
2019-01-24T15:34:30.773Z,-1.29
2019-01-24T15:37:01.500Z,-1.31
2019-01-24T15:39:31.961Z,-1.32
2019-01-24T15:42:02.618Z,-1.36
2019-01-24T15:44:33.122Z,-1.35
2019-01-24T15:47:03.836Z,-1.40
2019-01-24T15:49:34.573Z,-1.40
2019-01-24T15:52:05.294Z,-1.44
2019-01-24T15:54:35.738Z,-1.48
2019-01-24T15:57:06.601Z,-1.46
2019-01-24T15:59:37.090Z,-1.49
2019-01-24T16:02:07.757Z,-1.49
2019-01-24T16:04:38.125Z,-1.50
2019-01-24T16:07:08.632Z,-1.57
2019-01-24T16:09:40.013Z,-1.54
2019-01-24T16:12:10.611Z,-1.51
2019-01-24T16:14:41.018Z,-1.55
2019-01-24T16:17:11.605Z,-1.56
2019-01-24T16:19:42.092Z,-1.57
2019-01-24T16:22:12.603Z,-1.52
2019-01-24T16:24:43.128Z,-1.55
2019-01-24T16:27:13.556Z,-1.55
2019-01-24T16:29:44.062Z,-1.60
2019-01-24T16:32:14.641Z,-1.63
2019-01-24T16:34:45.152Z,-1.60
2019-01-24T16:37:15.920Z,-1.63
2019-01-24T16:39:46.369Z,-1.59
2019-01-24T16:42:17.073Z,-1.63
2019-01-24T16:44:47.535Z,-1.66
2019-01-24T16:47:18.325Z,-1.65
2019-01-24T16:49:49.190Z,-1.67
2019-01-24T16:52:19.617Z,-1.67
2019-01-24T16:54:50.058Z,-1.73
2019-01-24T16:57:20.714Z,-1.76
2019-01-24T16:59:51.483Z,-1.87
2019-01-24T17:02:21.929Z,-1.89
2019-01-24T17:04:52.643Z,-1.91
2019-01-24T17:07:23.097Z,-1.92
2019-01-24T17:09:53.620Z,-1.84
2019-01-24T17:12:24.308Z,-1.87
2019-01-24T17:14:54.781Z,-1.80
2019-01-24T17:17:25.259Z,-1.73
2019-01-24T17:19:55.761Z,-1.69
2019-01-24T17:22:26.504Z,-1.66
2019-01-24T17:24:56.955Z,-1.69
2019-01-24T17:27:27.395Z,-1.67
2019-01-24T17:29:57.865Z,-1.66
2019-01-24T17:32:28.301Z,-1.65
2019-01-24T17:34:58.673Z,-1.70
2019-01-24T17:37:29.503Z,-1.73
2019-01-24T17:39:59.937Z,-1.75
2019-01-24T17:42:30.392Z,-1.73
2019-01-24T17:45:00.866Z,-1.70
2019-01-24T17:47:31.290Z,-1.70
2019-01-24T17:50:01.991Z,-1.65
2019-01-24T17:52:32.458Z,-1.66
2019-01-24T17:55:02.897Z,-1.72
2019-01-24T17:57:33.748Z,-1.67
2019-01-24T18:00:05.660Z,-1.62
2019-01-24T18:02:36.127Z,-1.60
2019-01-24T18:05:07.424Z,-1.58
2019-01-24T18:07:37.986Z,-1.49
2019-01-24T18:10:14.284Z,-1.50
2019-01-24T18:12:44.996Z,-1.58
2019-01-24T18:15:23.466Z,-1.58
2019-01-24T18:17:54.263Z,-1.55
2019-01-24T18:20:27.665Z,-1.54
2019-01-24T18:22:58.215Z,-1.62
2019-01-24T18:25:29.119Z,-1.61
2019-01-24T18:27:59.541Z,-1.64
2019-01-24T18:30:31.574Z,-1.66
2019-01-24T18:33:02.030Z,-1.64
2019-01-24T18:35:32.790Z,-1.60
2019-01-24T18:38:03.292Z,-1.63
2019-01-24T18:40:33.932Z,-1.67
2019-01-24T18:43:05.648Z,-1.67
2019-01-24T18:45:47.860Z,-1.66
2019-01-24T18:48:18.294Z,-1.71
2019-01-24T18:50:49.281Z,-1.70
2019-01-24T18:53:19.754Z,-1.66
2019-01-24T18:55:50.197Z,-1.61
2019-01-24T18:58:20.635Z,-1.59
2019-01-24T19:00:51.137Z,-1.64
2019-01-24T19:03:21.580Z,-1.63
2019-01-24T19:05:52.019Z,-1.60
2019-01-24T19:08:22.780Z,-1.59
2019-01-24T19:10:53.545Z,-1.58
2019-01-24T19:13:23.966Z,-1.61
2019-01-24T19:15:54.502Z,-1.61
2019-01-24T19:18:25.120Z,-1.58
2019-01-24T19:20:56.116Z,-1.58
2019-01-24T19:23:26.767Z,-1.64
2019-01-24T19:25:58.133Z,-1.59
2019-01-24T19:28:28.882Z,-1.57
2019-01-24T19:30:59.662Z,-1.56
2019-01-24T19:33:30.504Z,-1.58
2019-01-24T19:36:02.971Z,-1.60
2019-01-24T19:38:34.138Z,-1.56
2019-01-24T19:41:07.897Z,-1.56
2019-01-24T19:43:40.667Z,-1.53
2019-01-24T19:46:11.724Z,-1.54
2019-01-24T19:48:42.591Z,-1.54
2019-01-24T19:51:13.463Z,-1.54
2019-01-24T19:53:44.613Z,-1.53
2019-01-24T19:56:15.533Z,-1.48
2019-01-24T19:58:46.471Z,-1.50
2019-01-24T20:01:17.940Z,-1.41
2019-01-24T20:03:49.052Z,-1.41
2019-01-24T20:06:19.810Z,-1.38
2019-01-24T20:08:50.683Z,-1.40
2019-01-24T20:11:21.687Z,-1.36
2019-01-24T20:13:59.508Z,-1.38
2019-01-24T20:16:29.881Z,-1.36
2019-01-24T20:19:00.884Z,-1.38
2019-01-24T20:21:31.566Z,-1.37
2019-01-24T20:24:04.116Z,-1.41
2019-01-24T20:26:35.089Z,-1.40
2019-01-24T20:29:06.083Z,-1.35
2019-01-24T20:31:38.457Z,-1.28
2019-01-24T20:34:09.120Z,-1.37
2019-01-24T20:36:40.138Z,-1.37
2019-01-24T20:39:12.065Z,-1.32
2019-01-24T20:41:42.857Z,-1.22
2019-01-24T20:44:16.134Z,-1.23
2019-01-24T20:46:47.309Z,-1.19
2019-01-24T20:49:18.170Z,-1.17
2019-01-24T20:51:49.110Z,-1.39
2019-01-24T20:54:27.590Z,-1.47
2019-01-24T20:56:59.169Z,-1.37
2019-01-24T20:59:30.664Z,-1.25
2019-01-24T21:02:01.390Z,-1.37
2019-01-24T21:04:33.022Z,-1.37
2019-01-24T21:07:07.432Z,-1.46
2019-01-24T21:09:40.974Z,-1.35
2019-01-24T21:12:11.707Z,-1.36
2019-01-24T21:14:42.280Z,-1.40
2019-01-24T21:17:13.034Z,-1.39
2019-01-24T21:19:43.805Z,-1.35
2019-01-24T21:22:18.898Z,-1.35
2019-01-24T21:24:54.583Z,-1.31
2019-01-24T21:27:28.867Z,-1.35
2019-01-24T21:30:01.227Z,-1.35
2019-01-24T21:32:35.830Z,-1.32
2019-01-24T21:35:10.427Z,-1.30
2019-01-24T21:37:44.457Z,-1.33
2019-01-24T21:40:18.791Z,-1.29
2019-01-24T21:42:55.992Z,-1.32
2019-01-24T21:45:30.662Z,-1.34
2019-01-24T21:48:05.603Z,-1.24
2019-01-24T21:50:41.243Z,-1.31
2019-01-24T21:53:12.231Z,-1.26
2019-01-24T21:55:47.803Z,-1.27
2019-01-24T21:58:19.280Z,-1.32
2019-01-24T22:00:49.996Z,-1.29
2019-01-24T22:03:20.853Z,-1.29
2019-01-24T22:05:51.545Z,-1.34
2019-01-24T22:08:22.531Z,-1.27
2019-01-24T22:10:53.288Z,-1.36
2019-01-24T22:13:24.297Z,-1.31
2019-01-24T22:15:55.062Z,-1.30
2019-01-24T22:18:25.874Z,-1.32
2019-01-24T22:20:56.343Z,-1.42
2019-01-24T22:23:26.826Z,-1.32
2019-01-24T22:25:57.454Z,-1.33
2019-01-24T22:28:28.036Z,-1.32
2019-01-24T22:31:00.093Z,-1.31
2019-01-24T22:33:30.607Z,-1.33
2019-01-24T22:36:01.476Z,-1.30
2019-01-24T22:38:31.949Z,-1.30
2019-01-24T22:41:02.453Z,-1.28
2019-01-24T22:43:32.898Z,-1.29
2019-01-24T22:46:03.659Z,-1.27
2019-01-24T22:48:34.165Z,-1.20
2019-01-24T22:51:04.952Z,-1.22
2019-01-24T22:53:35.389Z,-1.23
2019-01-24T22:56:06.262Z,-1.29
2019-01-24T22:58:36.996Z,-1.21
2019-01-24T23:01:31.324Z,-1.15
2019-01-24T23:04:25.047Z,-1.19
2019-01-24T23:06:55.571Z,-1.15
2019-01-24T23:09:26.335Z,-1.17
2019-01-24T23:11:57.073Z,-1.14
2019-01-24T23:14:27.564Z,-1.16
2019-01-24T23:16:58.026Z,-1.17
2019-01-24T23:19:28.400Z,-1.19
2019-01-24T23:21:59.271Z,-1.19
2019-01-24T23:24:29.990Z,-1.14
2019-01-24T23:27:00.531Z,-1.17
2019-01-24T23:29:31.273Z,-1.14
2019-01-24T23:32:01.736Z,-1.10
2019-01-24T23:34:32.358Z,-1.11
2019-01-24T23:37:02.870Z,-1.11
2019-01-24T23:39:33.659Z,-1.11
2019-01-24T23:42:04.097Z,-1.06
2019-01-24T23:44:34.535Z,-1.11
2019-01-24T23:47:05.212Z,-1.06
2019-01-24T23:49:36.314Z,-1.13
2019-01-24T23:52:06.779Z,-1.11
2019-01-24T23:54:37.202Z,-1.12
2019-01-24T23:57:07.959Z,-1.10
2019-01-24T23:59:38.483Z,-1.09
